createdAt,value
2018-12-22T00:02:27.020Z,0.53
2018-12-22T00:04:54.523Z,0.60
2018-12-22T00:07:22.049Z,0.50
2018-12-22T00:09:49.568Z,0.90
2018-12-22T00:12:17.231Z,0.70
2018-12-22T00:14:44.736Z,0.50
2018-12-22T00:17:12.231Z,0.50
2018-12-22T00:19:39.791Z,0.53
2018-12-22T00:22:07.292Z,0.40
2018-12-22T00:24:34.839Z,0.40
2018-12-22T00:27:02.352Z,0.40
2018-12-22T00:29:29.879Z,0.40
2018-12-22T00:31:58.107Z,0.50
2018-12-22T00:34:25.627Z,0.50
2018-12-22T00:36:53.163Z,0.40
2018-12-22T00:39:21.164Z,0.80
2018-12-22T00:41:48.667Z,0.50
2018-12-22T00:44:16.195Z,0.63
2018-12-22T00:46:43.795Z,0.50
2018-12-22T00:49:11.424Z,0.60
2018-12-22T00:51:38.923Z,0.60
2018-12-22T00:54:06.415Z,0.40
2018-12-22T00:56:33.940Z,0.90
2018-12-22T00:59:01.451Z,0.40
2018-12-22T01:01:29.292Z,0.77
2018-12-22T01:03:56.792Z,0.40
2018-12-22T01:06:24.296Z,0.50
2018-12-22T01:08:51.819Z,0.60
2018-12-22T01:11:19.427Z,0.40
2018-12-22T01:13:46.958Z,0.43
2018-12-22T01:16:14.475Z,0.50
2018-12-22T01:18:41.985Z,0.40
2018-12-22T01:21:09.516Z,0.60
2018-12-22T01:23:37.008Z,0.90
2018-12-22T01:26:04.691Z,0.40
2018-12-22T01:28:39.353Z,0.40
2018-12-22T01:31:01.742Z,0.40
2018-12-22T01:33:29.273Z,0.40
2018-12-22T01:35:56.797Z,0.50
2018-12-22T01:38:24.435Z,0.50
2018-12-22T01:40:51.928Z,0.50
2018-12-22T01:43:19.443Z,0.57
2018-12-22T01:45:46.971Z,0.70
2018-12-22T01:48:14.464Z,0.43
2018-12-22T01:50:42.128Z,0.50
2018-12-22T01:53:09.623Z,0.53
2018-12-22T01:55:37.155Z,0.60
2018-12-22T01:58:04.679Z,0.40
2018-12-22T02:00:32.291Z,0.60
2018-12-22T02:02:59.861Z,0.63
2018-12-22T02:05:27.355Z,0.50
2018-12-22T02:07:54.864Z,0.50
2018-12-22T02:10:22.387Z,0.70
2018-12-22T02:12:49.888Z,0.87
2018-12-22T02:15:17.415Z,0.50
2018-12-22T02:17:44.924Z,0.40
2018-12-22T02:20:12.460Z,0.40
2018-12-22T02:22:39.987Z,0.47
2018-12-22T02:25:07.488Z,0.53
2018-12-22T02:27:35.021Z,0.50
2018-12-22T02:30:02.527Z,0.50
2018-12-22T02:32:30.059Z,0.47
2018-12-22T02:34:57.609Z,0.50
2018-12-22T02:37:25.135Z,0.60
2018-12-22T02:39:52.633Z,0.80
2018-12-22T02:42:20.164Z,0.50
2018-12-22T02:44:47.663Z,0.70
2018-12-22T02:47:15.159Z,0.70
2018-12-22T02:49:42.783Z,0.40
2018-12-22T02:52:10.300Z,0.87
2018-12-22T02:54:37.987Z,0.50
2018-12-22T02:57:05.483Z,0.50
2018-12-22T02:59:32.983Z,0.47
2018-12-22T03:02:00.524Z,0.50
2018-12-22T03:04:28.029Z,0.50
2018-12-22T03:06:55.569Z,0.60
2018-12-22T03:09:23.065Z,0.83
2018-12-22T03:11:50.559Z,0.50
2018-12-22T03:14:18.093Z,0.80
2018-12-22T03:16:45.620Z,0.40
2018-12-22T03:19:13.185Z,0.50
2018-12-22T03:21:40.683Z,0.70
2018-12-22T03:24:08.180Z,0.70
2018-12-22T03:26:35.733Z,0.40
2018-12-22T03:29:03.393Z,0.47
2018-12-22T03:31:30.941Z,0.60
2018-12-22T03:33:58.444Z,0.60
2018-12-22T03:36:25.943Z,0.50
2018-12-22T03:38:53.470Z,0.50
2018-12-22T03:41:20.979Z,0.40
2018-12-22T03:43:48.511Z,0.50
2018-12-22T03:46:16.022Z,0.40
2018-12-22T03:48:43.535Z,0.40
2018-12-22T03:51:11.061Z,0.50
2018-12-22T03:53:38.561Z,0.43
2018-12-22T03:56:06.088Z,0.50
2018-12-22T03:58:33.586Z,0.80
2018-12-22T04:01:01.173Z,1.10
2018-12-22T04:03:28.679Z,0.63
2018-12-22T04:05:56.175Z,0.90
2018-12-22T04:08:23.728Z,0.70
2018-12-22T04:10:51.325Z,0.50
2018-12-22T04:13:18.851Z,0.60
2018-12-22T04:15:46.349Z,0.63
2018-12-22T04:18:13.895Z,0.40
2018-12-22T04:20:41.396Z,1.13
2018-12-22T04:23:08.895Z,0.70
2018-12-22T04:25:36.428Z,0.70
2018-12-22T04:28:03.925Z,0.50
2018-12-22T04:30:31.460Z,0.60
2018-12-22T04:32:58.962Z,0.60
2018-12-22T04:35:26.483Z,0.90
2018-12-22T04:37:53.983Z,0.57
2018-12-22T04:40:21.809Z,0.63
2018-12-22T04:42:49.421Z,0.63
2018-12-22T04:45:16.919Z,0.60
2018-12-22T04:47:44.445Z,0.80
2018-12-22T04:50:11.970Z,0.40
2018-12-22T04:52:39.732Z,0.50
2018-12-22T04:55:07.232Z,0.67
2018-12-22T04:57:34.727Z,0.50
2018-12-22T05:00:02.263Z,0.70
2018-12-22T05:02:29.784Z,0.40
2018-12-22T05:04:57.495Z,0.40
2018-12-22T05:07:25.088Z,0.87
2018-12-22T05:09:52.858Z,0.60
2018-12-22T05:12:20.383Z,0.40
2018-12-22T05:14:47.884Z,0.40
2018-12-22T05:17:15.444Z,0.40
2018-12-22T05:19:42.952Z,0.30
2018-12-22T05:22:10.450Z,0.50
2018-12-22T05:24:38.580Z,0.57
2018-12-22T05:27:06.076Z,0.30
2018-12-22T05:29:33.916Z,0.33
2018-12-22T05:32:01.415Z,0.40
2018-12-22T05:34:28.908Z,0.50
2018-12-22T05:36:56.437Z,0.40
2018-12-22T05:39:23.945Z,0.40
2018-12-22T05:41:51.615Z,0.40
2018-12-22T05:44:19.111Z,0.40
2018-12-22T05:46:46.612Z,0.40
2018-12-22T05:49:14.164Z,0.40
2018-12-22T05:51:41.671Z,0.50
2018-12-22T05:54:09.214Z,0.40
2018-12-22T05:56:36.728Z,0.40
2018-12-22T05:59:04.719Z,0.50
2018-12-22T06:01:32.247Z,0.40
2018-12-22T06:03:59.744Z,0.40
2018-12-22T06:06:27.288Z,0.50
2018-12-22T06:08:54.787Z,0.30
2018-12-22T06:11:22.295Z,0.50
2018-12-22T06:13:49.815Z,0.30
2018-12-22T06:16:17.331Z,0.40
2018-12-22T06:18:44.867Z,0.30
2018-12-22T06:21:12.364Z,0.50
2018-12-22T06:23:39.880Z,0.77
2018-12-22T06:26:07.411Z,0.40
2018-12-22T06:28:34.908Z,0.40
2018-12-22T06:31:02.709Z,0.60
2018-12-22T06:33:30.235Z,0.30
2018-12-22T06:35:57.731Z,0.60
2018-12-22T06:38:25.267Z,0.30
2018-12-22T06:40:52.781Z,0.40
2018-12-22T06:43:20.329Z,0.37
2018-12-22T06:45:47.824Z,0.40
2018-12-22T06:48:15.419Z,0.60
2018-12-22T06:50:42.951Z,0.40
2018-12-22T06:53:10.464Z,0.60
2018-12-22T06:55:38.117Z,0.50
2018-12-22T06:58:05.616Z,1.23
2018-12-22T07:00:33.207Z,0.90
2018-12-22T07:03:00.739Z,0.53
2018-12-22T07:05:28.347Z,0.30
2018-12-22T07:07:55.972Z,0.40
2018-12-22T07:10:25.478Z,0.30
2018-12-22T07:12:53.017Z,0.30
2018-12-22T07:15:20.563Z,0.40
2018-12-22T07:17:48.059Z,0.40
2018-12-22T07:20:15.616Z,0.40
2018-12-22T07:22:43.112Z,0.43
2018-12-22T07:25:10.636Z,0.47
2018-12-22T07:27:38.184Z,0.40
2018-12-22T07:30:08.488Z,0.70
2018-12-22T07:32:36.023Z,0.40
2018-12-22T07:35:05.023Z,0.30
2018-12-22T07:37:32.524Z,0.37
2018-12-22T07:40:00.060Z,0.40
2018-12-22T07:42:27.783Z,0.40
2018-12-22T07:44:55.328Z,1.50
2018-12-22T07:47:22.850Z,0.50
2018-12-22T07:49:50.352Z,0.57
2018-12-22T07:52:17.879Z,0.60
2018-12-22T07:54:45.379Z,0.50
2018-12-22T07:57:12.916Z,0.40
2018-12-22T07:59:40.411Z,0.53
2018-12-22T08:02:07.911Z,0.40
2018-12-22T08:04:35.439Z,0.50
2018-12-22T08:07:02.942Z,0.60
2018-12-22T08:09:30.616Z,0.50
2018-12-22T08:11:58.115Z,0.93
2018-12-22T08:14:25.608Z,0.43
2018-12-22T08:16:53.137Z,0.70
2018-12-22T08:19:20.633Z,0.70
2018-12-22T08:21:48.412Z,0.63
2018-12-22T08:24:15.913Z,0.60
2018-12-22T08:26:43.412Z,0.90
2018-12-22T08:29:10.942Z,0.77
2018-12-22T08:31:38.440Z,1.03
2018-12-22T08:34:06.515Z,0.70
2018-12-22T08:36:34.011Z,0.70
2018-12-22T08:39:01.511Z,0.70
2018-12-22T08:41:29.055Z,0.50
2018-12-22T08:43:56.640Z,0.90
2018-12-22T08:46:24.163Z,0.73
2018-12-22T08:48:51.679Z,0.70
2018-12-22T08:51:19.203Z,0.70
2018-12-22T08:53:46.751Z,1.03
2018-12-22T08:56:14.251Z,0.60
2018-12-22T08:58:41.834Z,0.97
2018-12-22T09:01:09.404Z,0.83
2018-12-22T09:03:36.939Z,1.10
2018-12-22T09:06:04.439Z,1.17
2018-12-22T09:08:31.972Z,1.07
2018-12-22T09:10:59.479Z,0.93
2018-12-22T09:13:27.015Z,0.93
2018-12-22T09:15:54.532Z,0.80
2018-12-22T09:18:22.027Z,1.30
2018-12-22T09:20:49.567Z,1.03
2018-12-22T09:23:17.065Z,1.13
2018-12-22T09:25:44.613Z,1.37
2018-12-22T09:28:12.117Z,1.03
2018-12-22T09:30:39.620Z,1.20
2018-12-22T09:33:07.152Z,1.00
2018-12-22T09:35:34.666Z,1.53
2018-12-22T09:38:02.348Z,1.40
2018-12-22T09:40:29.853Z,1.30
2018-12-22T09:42:57.355Z,1.37
2018-12-22T09:45:24.903Z,1.20
2018-12-22T09:47:52.403Z,1.00
2018-12-22T09:50:19.984Z,0.73
2018-12-22T09:52:47.491Z,1.20
2018-12-22T09:55:14.991Z,1.67
2018-12-22T09:57:42.530Z,1.00
2018-12-22T10:00:11.443Z,0.90
2018-12-22T10:02:39.279Z,1.33
2018-12-22T10:05:08.378Z,0.73
2018-12-22T10:07:35.895Z,1.37
2018-12-22T10:10:06.225Z,1.00
2018-12-22T10:12:33.728Z,1.37
2018-12-22T10:15:01.295Z,1.17
2018-12-22T10:17:28.795Z,0.97
2018-12-22T10:19:56.356Z,1.20
2018-12-22T10:22:23.891Z,1.57
2018-12-22T10:24:51.390Z,0.90
2018-12-22T10:27:18.957Z,0.80
2018-12-22T10:29:46.484Z,0.83
2018-12-22T10:32:14.191Z,1.10
2018-12-22T10:34:41.700Z,1.40
2018-12-22T10:37:09.194Z,0.63
2018-12-22T10:39:36.720Z,1.20
2018-12-22T10:42:04.235Z,0.60
2018-12-22T10:44:31.774Z,0.93
2018-12-22T10:46:59.295Z,0.90
2018-12-22T10:49:26.907Z,1.20
2018-12-22T10:51:54.412Z,0.77
2018-12-22T10:54:21.931Z,0.90
2018-12-22T10:56:49.459Z,0.80
2018-12-22T10:59:16.959Z,0.80
2018-12-22T11:01:44.515Z,1.20
2018-12-22T11:04:12.040Z,0.70
2018-12-22T11:06:39.584Z,1.00
2018-12-22T11:09:07.211Z,1.07
2018-12-22T11:11:34.715Z,1.97
2018-12-22T11:14:02.280Z,1.40
2018-12-22T11:16:29.784Z,0.83
2018-12-22T11:18:57.320Z,0.60
2018-12-22T11:21:25.539Z,0.70
2018-12-22T11:23:53.120Z,1.03
2018-12-22T11:26:20.628Z,0.90
2018-12-22T11:28:48.143Z,1.07
2018-12-22T11:31:15.719Z,1.40
2018-12-22T11:33:43.226Z,1.10
2018-12-22T11:36:10.800Z,1.10
2018-12-22T11:38:38.391Z,1.30
2018-12-22T11:41:05.895Z,1.00
2018-12-22T11:43:33.475Z,1.13
2018-12-22T11:46:00.983Z,1.20
2018-12-22T11:48:28.859Z,1.13
2018-12-22T11:50:56.371Z,1.40
2018-12-22T11:53:23.888Z,0.90
2018-12-22T11:55:51.420Z,0.90
2018-12-22T11:58:18.923Z,1.30
2018-12-22T12:00:46.688Z,1.60
2018-12-22T12:03:14.198Z,1.47
2018-12-22T12:05:41.701Z,2.00
2018-12-22T12:08:09.254Z,2.07
2018-12-22T12:10:36.783Z,2.73
2018-12-22T12:13:04.376Z,2.00
2018-12-22T12:15:35.791Z,2.50
2018-12-22T12:18:17.515Z,6.00
2018-12-22T12:20:45.027Z,1.80
2018-12-22T12:23:12.600Z,1.30
2018-12-22T12:25:40.319Z,0.80
2018-12-22T12:28:07.855Z,1.10
2018-12-22T12:30:35.488Z,1.37
2018-12-22T12:33:03.026Z,0.60
2018-12-22T12:35:30.699Z,0.80
2018-12-22T12:37:58.229Z,1.20
2018-12-22T12:40:25.773Z,0.80
2018-12-22T12:42:53.300Z,0.67
2018-12-22T12:45:20.844Z,0.90
2018-12-22T12:47:48.624Z,0.90
2018-12-22T12:50:19.856Z,1.23
2018-12-22T12:52:47.360Z,1.00
2018-12-22T12:55:15.788Z,0.83
2018-12-22T12:57:43.291Z,0.70
2018-12-22T13:00:19.091Z,0.60
2018-12-22T13:02:46.598Z,0.77
2018-12-22T13:05:14.099Z,0.90
2018-12-22T13:07:41.653Z,1.37
2018-12-22T13:10:11.891Z,1.00
2018-12-22T13:15:48.453Z,0.80
2018-12-22T13:18:16.484Z,0.87
2018-12-22T13:20:43.983Z,1.03
2018-12-22T13:23:11.480Z,1.30
2018-12-22T13:25:39.240Z,0.80
2018-12-22T13:28:06.738Z,1.00
2018-12-22T13:30:34.263Z,0.70
2018-12-22T13:33:01.759Z,0.93
2018-12-22T13:35:29.286Z,0.57
2018-12-22T13:37:56.788Z,0.90
2018-12-22T13:40:24.387Z,0.93
2018-12-22T13:42:51.888Z,1.63
2018-12-22T13:45:19.389Z,0.60
2018-12-22T13:47:47.013Z,0.83
2018-12-22T13:50:14.586Z,0.90
2018-12-22T13:52:42.319Z,1.10
2018-12-22T13:55:10.326Z,0.80
2018-12-22T13:57:43.647Z,1.43
2018-12-22T14:00:19.320Z,0.80
2018-12-22T14:02:46.848Z,0.97
2018-12-22T14:05:24.795Z,0.90
2018-12-22T14:07:52.346Z,0.80
2018-12-22T14:10:20.648Z,0.90
2018-12-22T14:12:48.163Z,0.60
2018-12-22T14:15:21.795Z,1.17
2018-12-22T14:18:01.900Z,0.90
2018-12-22T14:20:30.728Z,0.80
2018-12-22T14:22:58.347Z,1.77
2018-12-22T14:25:26.043Z,0.80
2018-12-22T14:27:53.549Z,1.57
2018-12-22T14:30:21.061Z,0.63
2018-12-22T14:32:48.587Z,1.13
2018-12-22T14:35:19.988Z,1.80
2018-12-22T14:37:47.538Z,0.90
2018-12-22T14:40:15.044Z,0.60
2018-12-22T14:42:42.571Z,0.70
2018-12-22T14:45:12.991Z,0.70
2018-12-22T14:47:41.147Z,0.60
2018-12-22T14:50:11.279Z,0.87
2018-12-22T14:52:38.797Z,0.83
2018-12-22T14:55:10.455Z,0.60
2018-12-22T14:57:44.901Z,0.67
2018-12-22T15:00:15.591Z,0.67
2018-12-22T15:02:43.215Z,0.43
2018-12-22T15:05:10.716Z,0.97
2018-12-22T15:07:38.251Z,0.73
2018-12-22T15:10:09.440Z,0.60
2018-12-22T15:12:37.066Z,0.80
2018-12-22T15:15:08.927Z,0.50
2018-12-22T15:17:36.755Z,0.60
2018-12-22T15:20:08.287Z,0.80
2018-12-22T15:22:35.816Z,0.60
2018-12-22T15:25:03.743Z,0.83
2018-12-22T15:27:31.243Z,0.83
2018-12-22T15:29:58.772Z,0.67
2018-12-22T15:32:26.274Z,0.77
2018-12-22T15:34:53.799Z,0.60
2018-12-22T15:37:21.301Z,0.60
2018-12-22T15:39:49.234Z,0.60
2018-12-22T15:42:16.741Z,0.97
2018-12-22T15:44:44.270Z,0.90
2018-12-22T15:47:11.827Z,0.80
2018-12-22T15:49:39.323Z,0.87
2018-12-22T15:52:06.987Z,0.60
2018-12-22T15:54:34.488Z,1.00
2018-12-22T15:57:02.003Z,0.73
2018-12-22T15:59:29.652Z,0.73
2018-12-22T16:01:57.152Z,0.77
2018-12-22T16:04:24.691Z,0.50
2018-12-22T16:06:52.276Z,0.70
2018-12-22T16:09:19.831Z,0.73
2018-12-22T16:11:47.364Z,0.70
2018-12-22T16:14:14.891Z,0.93
2018-12-22T16:16:42.455Z,1.07
2018-12-22T16:19:09.991Z,1.33
2018-12-22T16:21:37.491Z,1.33
2018-12-22T16:24:05.048Z,1.30
2018-12-22T16:26:33.270Z,0.70
2018-12-22T16:29:01.132Z,0.60
2018-12-22T16:31:28.640Z,0.87
2018-12-22T16:33:56.164Z,1.00
2018-12-22T16:36:23.737Z,0.73
2018-12-22T16:38:51.238Z,1.00
2018-12-22T16:41:18.849Z,0.67
2018-12-22T16:43:46.430Z,1.10
2018-12-22T16:46:13.939Z,0.67
2018-12-22T16:48:41.663Z,0.80
2018-12-22T16:51:09.164Z,1.50
2018-12-22T16:53:36.695Z,1.17
2018-12-22T16:56:04.196Z,1.37
2018-12-22T16:58:31.694Z,0.93
2018-12-22T17:01:18.804Z,5.30
2018-12-22T17:03:46.312Z,1.00
2018-12-22T17:06:14.447Z,0.80
2018-12-22T17:08:41.943Z,0.73
2018-12-22T17:11:09.471Z,0.90
2018-12-22T17:13:36.992Z,1.10
2018-12-22T17:16:04.589Z,0.90
2018-12-22T17:18:32.259Z,0.83
2018-12-22T17:21:04.484Z,1.03
2018-12-22T17:23:42.728Z,1.17
2018-12-22T17:26:10.601Z,1.17
2018-12-22T17:28:38.118Z,1.43
2018-12-22T17:31:05.674Z,1.57
2018-12-22T17:33:33.167Z,1.53
2018-12-22T17:36:00.700Z,1.87
2018-12-22T17:38:28.307Z,1.57
2018-12-22T17:40:56.063Z,1.80
2018-12-22T17:43:23.599Z,1.33
2018-12-22T17:45:51.092Z,1.23
2018-12-22T17:48:18.695Z,2.03
2018-12-22T17:50:46.207Z,2.97
2018-12-22T17:53:13.751Z,2.77
2018-12-22T17:55:41.263Z,11.53
2018-12-22T17:58:08.859Z,7.07
2018-12-22T18:00:36.437Z,3.10
2018-12-22T18:03:06.159Z,1.70
2018-12-22T18:05:33.687Z,0.80
2018-12-22T18:08:01.197Z,1.00
2018-12-22T18:10:28.936Z,1.50
2018-12-22T18:12:56.477Z,0.93
2018-12-22T18:15:25.387Z,0.97
2018-12-22T18:17:53.025Z,1.43
2018-12-22T18:20:20.525Z,1.37
2018-12-22T18:22:48.199Z,0.93
2018-12-22T18:25:19.000Z,0.90
2018-12-22T18:27:48.648Z,0.80
2018-12-22T18:30:16.191Z,1.40
2018-12-22T18:32:44.891Z,0.93
2018-12-22T18:35:12.527Z,1.20
2018-12-22T18:37:40.028Z,1.70
2018-12-22T18:40:23.667Z,1.27
2018-12-22T18:42:51.339Z,1.17
2018-12-22T18:45:18.879Z,1.47
2018-12-22T18:47:46.379Z,2.50
2018-12-22T18:50:21.053Z,0.87
2018-12-22T18:52:48.587Z,1.13
2018-12-22T18:55:16.105Z,1.20
2018-12-22T18:57:46.006Z,2.20
2018-12-22T19:00:19.068Z,1.40
2018-12-22T19:02:46.635Z,1.40
2018-12-22T19:05:14.937Z,1.23
2018-12-22T19:07:42.435Z,1.60
2018-12-22T19:10:30.519Z,1.10
2018-12-22T19:12:58.034Z,1.73
2018-12-22T19:15:25.716Z,1.10
2018-12-22T19:17:53.815Z,2.00
2018-12-22T19:20:28.048Z,1.57
2018-12-22T19:22:55.547Z,1.50
2018-12-22T19:25:23.460Z,1.30
2018-12-22T19:27:51.015Z,1.20
2018-12-22T19:30:18.514Z,1.00
2018-12-22T19:32:46.051Z,0.93
2018-12-22T19:35:13.605Z,1.33
2018-12-22T19:37:41.199Z,1.40
2018-12-22T19:40:08.888Z,1.57
2018-12-22T19:42:36.455Z,1.47
2018-12-22T19:45:05.772Z,1.97
2018-12-22T19:47:33.288Z,1.60
2018-12-22T19:50:00.832Z,1.20
2018-12-22T19:52:28.337Z,1.37
2018-12-22T19:54:55.860Z,1.77
2018-12-22T19:57:23.983Z,1.10
2018-12-22T19:59:51.507Z,0.90
2018-12-22T20:02:19.006Z,1.67
2018-12-22T20:04:46.620Z,1.43
2018-12-22T20:07:14.115Z,1.23
2018-12-22T20:09:41.619Z,1.20
2018-12-22T20:12:09.148Z,1.33
2018-12-22T20:14:36.739Z,1.37
2018-12-22T20:17:04.291Z,2.33
2018-12-22T20:19:31.788Z,1.80
2018-12-22T20:21:59.283Z,2.37
2018-12-22T20:24:26.822Z,1.83
2018-12-22T20:26:54.328Z,1.80
2018-12-22T20:29:21.851Z,1.63
2018-12-22T20:31:49.344Z,1.90
2018-12-22T20:34:16.855Z,1.10
2018-12-22T20:36:44.381Z,1.20
2018-12-22T20:39:11.879Z,2.10
2018-12-22T20:41:39.408Z,2.43
2018-12-22T20:44:06.904Z,1.40
2018-12-22T20:46:34.504Z,1.60
2018-12-22T20:49:02.011Z,2.10
2018-12-22T20:51:29.535Z,2.30
2018-12-22T20:53:57.060Z,2.47
2018-12-22T20:56:24.572Z,1.80
2018-12-22T20:58:52.197Z,1.80
2018-12-22T21:01:19.695Z,1.67
2018-12-22T21:03:47.528Z,2.17
2018-12-22T21:06:16.622Z,2.27
2018-12-22T21:08:44.120Z,2.00
2018-12-22T21:11:11.743Z,1.50
2018-12-22T21:13:39.246Z,0.73
2018-12-22T21:16:06.980Z,2.63
2018-12-22T21:18:34.477Z,1.70
2018-12-22T21:21:01.975Z,2.50
2018-12-22T21:23:29.515Z,2.67
2018-12-22T21:25:57.035Z,1.10
2018-12-22T21:28:24.669Z,1.90
2018-12-22T21:30:52.179Z,1.80
2018-12-22T21:33:19.691Z,2.00
2018-12-22T21:35:53.280Z,1.10
2018-12-22T21:38:16.739Z,1.57
2018-12-22T21:40:44.419Z,1.60
2018-12-22T21:43:11.916Z,2.50
2018-12-22T21:45:39.423Z,1.67
2018-12-22T21:48:06.952Z,2.40
2018-12-22T21:50:34.454Z,1.87
2018-12-22T21:53:01.988Z,1.70
2018-12-22T21:55:29.488Z,1.57
2018-12-22T21:57:57.013Z,1.43
2018-12-22T22:00:24.547Z,1.03
2018-12-22T22:02:52.043Z,1.50
2018-12-22T22:05:19.597Z,1.47
2018-12-22T22:07:47.119Z,1.30
2018-12-22T22:10:14.618Z,1.70
2018-12-22T22:12:42.141Z,1.73
2018-12-22T22:15:09.636Z,2.00
2018-12-22T22:17:37.309Z,2.17
2018-12-22T22:20:05.618Z,2.30
2018-12-22T22:22:33.130Z,4.10
2018-12-22T22:25:00.656Z,3.17
2018-12-22T22:27:28.185Z,3.53
2018-12-22T22:29:55.740Z,2.30
2018-12-22T22:32:23.232Z,2.77
2018-12-22T22:34:50.739Z,1.93
2018-12-22T22:37:18.268Z,2.27
2018-12-22T22:39:45.776Z,2.30
2018-12-22T22:42:13.307Z,1.77
2018-12-22T22:44:40.851Z,2.43
2018-12-22T22:47:08.447Z,1.87
2018-12-22T22:49:35.974Z,1.73
2018-12-22T22:52:03.474Z,0.97
2018-12-22T22:54:31.015Z,1.30
2018-12-22T22:56:59.441Z,1.50
2018-12-22T22:59:27.151Z,1.17
2018-12-22T23:01:54.683Z,2.00
2018-12-22T23:04:22.588Z,1.57
2018-12-22T23:06:50.435Z,1.70
2018-12-22T23:09:17.933Z,1.97
2018-12-22T23:11:45.432Z,1.20
2018-12-22T23:14:12.969Z,2.60
2018-12-22T23:16:40.670Z,1.13
2018-12-22T23:19:08.319Z,1.70
2018-12-22T23:21:35.904Z,1.90
2018-12-22T23:24:03.659Z,1.10
2018-12-22T23:26:31.157Z,1.10
2018-12-22T23:28:58.656Z,1.03
2018-12-22T23:31:26.209Z,1.37
2018-12-22T23:33:53.708Z,1.20
2018-12-22T23:36:21.351Z,1.10
2018-12-22T23:38:48.851Z,1.13
2018-12-22T23:41:16.352Z,1.10
2018-12-22T23:43:43.877Z,0.90
2018-12-22T23:46:11.392Z,1.33
2018-12-22T23:48:38.933Z,1.10
2018-12-22T23:51:06.542Z,1.07
2018-12-22T23:53:34.177Z,1.00
2018-12-22T23:56:01.699Z,2.60
2018-12-22T23:58:29.203Z,1.60
